createdAt,value
2022-09-29T00:01:48.460Z,98317.03
2022-09-29T00:04:16.064Z,98315.38
2022-09-29T00:06:43.705Z,98308.41
2022-09-29T00:09:11.851Z,98317.34
2022-09-29T00:11:39.644Z,98310.63
2022-09-29T00:14:07.278Z,98312.59
2022-09-29T00:16:34.990Z,98314.41
2022-09-29T00:19:02.826Z,98318.19
2022-09-29T00:21:30.981Z,98309.28
2022-09-29T00:23:58.539Z,98308.97
2022-09-29T00:26:26.087Z,98310.50
2022-09-29T00:28:53.903Z,98301.59
2022-09-29T00:31:21.579Z,98305.09
2022-09-29T00:33:49.543Z,98305.91
2022-09-29T00:36:17.123Z,98304.22
2022-09-29T00:38:44.679Z,98303.38
2022-09-29T00:41:12.226Z,98308.00
2022-09-29T00:43:40.290Z,98302.16
2022-09-29T00:46:08.468Z,98295.47
2022-09-29T00:48:36.070Z,98300.06
2022-09-29T00:51:03.675Z,98300.34
2022-09-29T00:53:31.283Z,98296.72
2022-09-29T00:55:59.170Z,98301.22
2022-09-29T00:58:27.363Z,98301.22
2022-09-29T01:00:55.622Z,98303.00
2022-09-29T01:03:23.226Z,98300.66
2022-09-29T01:05:50.908Z,98298.28
2022-09-29T01:08:18.486Z,98297.72
2022-09-29T01:10:46.647Z,98300.78
2022-09-29T01:13:14.280Z,98301.22
2022-09-29T01:15:41.873Z,98303.44
2022-09-29T01:18:09.790Z,98305.00
2022-09-29T01:20:37.407Z,98302.75
2022-09-29T01:23:05.326Z,98302.19
2022-09-29T01:25:32.974Z,98303.31
2022-09-29T01:28:00.594Z,98309.97
2022-09-29T01:30:28.159Z,98308.47
2022-09-29T01:32:55.725Z,98314.03
2022-09-29T01:35:23.817Z,98320.59
2022-09-29T01:37:51.390Z,98319.72
2022-09-29T01:40:18.984Z,98317.38
2022-09-29T01:42:46.631Z,98321.81
2022-09-29T01:45:14.181Z,98326.28
2022-09-29T01:47:42.328Z,98327.94
2022-09-29T01:50:09.901Z,98320.16
2022-09-29T01:52:37.445Z,98324.59
2022-09-29T01:55:05.011Z,98321.25
2022-09-29T01:57:32.658Z,98321.00
2022-09-29T02:00:01.934Z,98324.47
2022-09-29T02:02:29.589Z,98327.66
2022-09-29T02:04:57.623Z,98317.09
2022-09-29T02:07:25.168Z,98310.00
2022-09-29T02:09:52.716Z,98316.25
2022-09-29T02:12:20.679Z,98322.38
2022-09-29T02:14:48.229Z,98322.09
2022-09-29T02:17:19.620Z,98324.03
2022-09-29T02:19:47.626Z,98322.38
2022-09-29T02:22:15.473Z,98320.03
2022-09-29T02:24:43.592Z,98322.09
2022-09-29T02:27:11.204Z,98325.56
2022-09-29T02:29:38.810Z,98329.19
2022-09-29T02:32:06.381Z,98328.38
2022-09-29T02:34:33.970Z,98326.66
2022-09-29T02:37:02.101Z,98323.22
2022-09-29T02:39:29.654Z,98331.00
2022-09-29T02:41:57.291Z,98329.19
2022-09-29T02:44:24.841Z,98326.53
2022-09-29T02:46:52.427Z,98320.16
2022-09-29T02:49:21.173Z,98323.47
2022-09-29T02:51:48.725Z,98322.50
2022-09-29T02:54:16.302Z,98339.91
2022-09-29T02:56:43.916Z,98323.22
2022-09-29T02:59:11.499Z,98329.34
2022-09-29T03:01:39.304Z,98333.53
2022-09-29T03:04:08.515Z,98336.03
2022-09-29T03:06:36.377Z,98328.91
2022-09-29T03:09:03.938Z,98332.41
2022-09-29T03:11:31.538Z,98329.63
2022-09-29T03:13:59.626Z,98332.41
2022-09-29T03:16:27.301Z,98331.84
2022-09-29T03:18:55.462Z,98326.69
2022-09-29T03:21:23.038Z,98329.63
2022-09-29T03:23:53.139Z,98329.19
2022-09-29T03:26:25.700Z,98326.25
2022-09-29T03:28:53.586Z,98328.47
2022-09-29T03:31:21.228Z,98324.56
2022-09-29T03:33:48.934Z,98328.59
2022-09-29T03:36:16.546Z,98324.81
2022-09-29T03:38:47.224Z,98327.03
2022-09-29T03:41:14.965Z,98329.09
2022-09-29T03:43:42.595Z,98325.91
2022-09-29T03:46:10.268Z,98330.63
2022-09-29T03:48:37.890Z,98332.56
2022-09-29T03:51:07.126Z,98332.00
2022-09-29T03:53:34.723Z,98334.75
2022-09-29T03:56:02.283Z,98342.00
2022-09-29T03:58:29.853Z,98344.06
2022-09-29T04:00:57.460Z,98330.28
2022-09-29T04:03:25.472Z,98344.72
2022-09-29T04:05:53.044Z,98343.19
2022-09-29T04:08:20.632Z,98332.19
2022-09-29T04:10:48.370Z,98350.94
2022-09-29T04:13:19.906Z,98342.44
2022-09-29T04:15:48.301Z,98348.69
2022-09-29T04:18:16.086Z,98348.13
2022-09-29T04:20:43.705Z,98351.84
2022-09-29T04:23:11.282Z,98351.09
2022-09-29T04:25:38.893Z,98354.88
2022-09-29T04:28:07.065Z,98354.16
2022-09-29T04:30:34.694Z,98357.91
2022-09-29T04:33:02.301Z,98362.34
2022-09-29T04:35:33.615Z,98367.88
2022-09-29T04:38:03.750Z,98366.19
2022-09-29T04:40:31.815Z,98372.31
2022-09-29T04:42:59.460Z,98368.84
2022-09-29T04:45:27.094Z,98372.44
2022-09-29T04:47:54.706Z,98368.25
2022-09-29T04:50:22.611Z,98365.88
2022-09-29T04:52:50.801Z,98375.75
2022-09-29T04:55:18.682Z,98368.06
2022-09-29T04:57:46.608Z,98369.03
2022-09-29T05:00:14.258Z,98370.97
2022-09-29T05:02:43.813Z,98372.75
2022-09-29T05:05:13.959Z,98374.59
2022-09-29T05:07:41.872Z,98371.25
2022-09-29T05:10:09.449Z,98368.72
2022-09-29T05:12:37.066Z,98382.75
2022-09-29T05:15:05.372Z,98380.25
2022-09-29T05:17:33.941Z,98380.38
2022-09-29T05:20:01.561Z,98383.13
2022-09-29T05:22:29.172Z,98381.63
2022-09-29T05:24:56.729Z,98387.97
2022-09-29T05:27:24.259Z,98384.59
2022-09-29T05:29:52.347Z,98390.03
2022-09-29T05:32:19.944Z,98388.38
2022-09-29T05:34:47.527Z,98394.56
2022-09-29T05:37:15.210Z,98393.88
2022-09-29T05:39:45.016Z,98404.56
2022-09-29T05:42:13.207Z,98401.22
2022-09-29T05:44:40.892Z,98393.44
2022-09-29T05:47:08.471Z,98404.00
2022-09-29T05:49:37.014Z,98410.22
2022-09-29T05:52:04.625Z,98408.53
2022-09-29T05:54:33.071Z,98408.53
2022-09-29T05:57:00.688Z,98412.84
2022-09-29T05:59:28.323Z,98414.28
2022-09-29T06:01:56.269Z,98412.34
2022-09-29T06:04:23.915Z,98413.63
2022-09-29T06:06:51.921Z,98412.44
2022-09-29T06:09:19.675Z,98421.63
2022-09-29T06:11:47.426Z,98416.94
2022-09-29T06:14:15.029Z,98421.59
2022-09-29T06:16:42.926Z,98419.84
2022-09-29T06:19:11.365Z,98417.97
2022-09-29T06:21:39.904Z,98418.19
2022-09-29T06:24:08.577Z,98421.72
2022-09-29T06:26:36.290Z,98422.47
2022-09-29T06:29:04.434Z,98423.63
2022-09-29T06:31:32.662Z,98420.75
2022-09-29T06:34:00.456Z,98422.13
2022-09-29T06:36:45.536Z,98426.44
2022-09-29T06:39:13.268Z,98432.19
2022-09-29T06:41:41.626Z,98428.88
2022-09-29T06:44:09.278Z,98430.84
2022-09-29T06:46:38.278Z,98432.00
2022-09-29T06:49:05.884Z,98433.81
2022-09-29T06:51:44.374Z,98433.59
2022-09-29T06:54:13.515Z,98442.13
2022-09-29T06:56:41.182Z,98438.25
2022-09-29T06:59:08.877Z,98442.44
2022-09-29T07:01:36.603Z,98443.16
2022-09-29T07:04:04.455Z,98449.03
2022-09-29T07:06:33.103Z,98444.69
2022-09-29T07:09:01.549Z,98450.00
2022-09-29T07:11:29.607Z,98449.03
2022-09-29T07:13:57.410Z,98448.19
2022-09-29T07:16:25.324Z,98445.66
2022-09-29T07:18:54.223Z,98457.09
2022-09-29T07:21:22.380Z,98453.97
2022-09-29T07:23:50.211Z,98460.50
2022-09-29T07:26:18.394Z,98454.66
2022-09-29T07:28:46.089Z,98452.34
2022-09-29T07:31:15.714Z,98461.50
2022-09-29T07:33:43.948Z,98458.38
2022-09-29T07:36:11.741Z,98461.38
2022-09-29T07:38:39.490Z,98450.09
2022-09-29T07:41:07.649Z,98457.28
2022-09-29T07:43:36.062Z,98455.78
2022-09-29T07:46:03.822Z,98462.38
2022-09-29T07:48:32.426Z,98454.16
2022-09-29T07:51:00.272Z,98465.41
2022-09-29T07:53:28.112Z,98458.03
2022-09-29T07:55:56.684Z,98461.59
2022-09-29T07:58:24.506Z,98449.91
2022-09-29T08:00:52.331Z,98453.16
2022-09-29T08:03:20.131Z,98451.75
2022-09-29T08:05:47.890Z,98455.97
2022-09-29T08:08:16.470Z,98455.84
2022-09-29T08:10:51.436Z,98463.25
2022-09-29T08:13:20.250Z,98464.16
2022-09-29T08:15:48.047Z,98465.91
2022-09-29T08:18:16.961Z,98461.47
2022-09-29T08:20:44.826Z,98459.69
2022-09-29T08:23:12.757Z,98460.06
2022-09-29T08:25:42.849Z,98459.22
2022-09-29T08:28:27.723Z,98457.81
2022-09-29T08:31:03.542Z,98467.31
2022-09-29T08:33:32.499Z,98467.09
2022-09-29T08:36:00.267Z,98469.09
2022-09-29T08:38:28.391Z,98478.72
2022-09-29T08:40:56.383Z,98478.31
2022-09-29T08:43:33.270Z,98477.63
2022-09-29T08:46:02.882Z,98478.66
2022-09-29T08:48:31.123Z,98482.97
2022-09-29T08:50:58.977Z,98476.78
2022-09-29T08:53:29.024Z,98481.69
2022-09-29T08:55:57.430Z,98488.97
2022-09-29T08:58:25.321Z,98488.28
2022-09-29T09:00:53.699Z,98490.44
2022-09-29T09:03:21.520Z,98492.78
2022-09-29T09:05:49.378Z,98497.41
2022-09-29T09:08:17.194Z,98490.56
2022-09-29T09:10:47.676Z,98492.53
2022-09-29T09:13:16.474Z,98491.50
2022-09-29T09:15:44.578Z,98494.13
2022-09-29T09:18:12.428Z,98489.84
2022-09-29T09:20:40.390Z,98494.81
2022-09-29T09:23:08.364Z,98499.25
2022-09-29T09:25:36.861Z,98496.56
2022-09-29T09:28:04.887Z,98502.56
2022-09-29T09:30:32.793Z,98491.88
2022-09-29T09:33:00.686Z,98498.41
2022-09-29T09:35:28.432Z,98496.03
2022-09-29T09:37:57.609Z,98493.78
2022-09-29T09:40:25.670Z,98489.13
2022-09-29T09:42:53.842Z,98488.19
2022-09-29T09:45:21.797Z,98495.56
2022-09-29T09:47:49.621Z,98499.84
2022-09-29T09:50:18.244Z,98496.06
2022-09-29T09:52:46.272Z,98504.06
2022-09-29T09:55:14.856Z,98495.13
2022-09-29T09:57:42.718Z,98489.97
2022-09-29T10:00:11.049Z,98494.53
2022-09-29T10:02:39.869Z,98495.06
2022-09-29T10:05:09.633Z,98496.56
2022-09-29T10:07:37.676Z,98496.72
2022-09-29T10:10:05.321Z,98497.88
2022-09-29T10:12:33.027Z,98497.66
2022-09-29T10:15:01.245Z,98495.41
2022-09-29T10:17:29.252Z,98492.81
2022-09-29T10:19:57.085Z,98482.72
2022-09-29T10:22:24.796Z,98476.94
2022-09-29T10:24:52.525Z,98481.66
2022-09-29T10:27:20.796Z,98481.66
2022-09-29T10:29:49.784Z,98484.41
2022-09-29T10:32:17.556Z,98488.34
2022-09-29T10:34:45.323Z,98485.84
2022-09-29T10:37:13.620Z,98492.13
2022-09-29T10:39:43.671Z,98486.25
2022-09-29T10:42:11.629Z,98489.22
2022-09-29T10:44:39.595Z,98492.66
2022-09-29T10:47:07.466Z,98491.75
2022-09-29T10:49:35.356Z,98486.56
2022-09-29T10:52:04.032Z,98498.00
2022-09-29T10:54:31.939Z,98499.25
2022-09-29T10:56:59.781Z,98499.44
2022-09-29T10:59:27.524Z,98505.47
2022-09-29T11:01:55.663Z,98507.34
2022-09-29T11:04:24.334Z,98508.22
2022-09-29T11:06:52.086Z,98510.72
2022-09-29T11:09:19.950Z,98505.91
2022-09-29T11:11:47.873Z,98513.75
2022-09-29T11:14:15.721Z,98508.31
2022-09-29T11:16:43.676Z,98514.41
2022-09-29T11:19:11.713Z,98531.25
2022-09-29T11:21:39.588Z,98521.41
2022-09-29T11:24:07.629Z,98536.56
2022-09-29T11:26:35.412Z,98541.09
2022-09-29T11:29:03.952Z,98535.28
2022-09-29T11:31:31.884Z,98548.75
2022-09-29T11:33:59.628Z,98538.00
2022-09-29T11:36:27.680Z,98543.34
2022-09-29T11:38:55.546Z,98531.25
2022-09-29T11:41:23.933Z,98526.31
2022-09-29T11:43:51.733Z,98524.19
2022-09-29T11:46:20.519Z,98526.47
2022-09-29T11:48:48.427Z,98529.31
2022-09-29T11:51:16.388Z,98536.81
2022-09-29T11:53:44.948Z,98541.59
2022-09-29T11:56:12.778Z,98533.44
2022-09-29T11:58:41.482Z,98533.50
2022-09-29T12:01:09.315Z,98533.47
2022-09-29T12:03:37.194Z,98523.13
2022-09-29T12:06:05.785Z,98517.63
2022-09-29T12:08:33.767Z,98519.53
2022-09-29T12:11:13.067Z,98515.16
2022-09-29T12:13:50.434Z,98518.97
2022-09-29T12:16:18.969Z,98530.09
2022-09-29T12:18:46.776Z,98528.06
2022-09-29T12:21:17.595Z,98537.00
2022-09-29T12:23:46.329Z,98541.72
2022-09-29T12:26:14.107Z,98538.28
2022-09-29T12:28:42.959Z,98541.44
2022-09-29T12:31:10.949Z,98544.66
2022-09-29T12:33:38.897Z,98540.81
2022-09-29T12:36:06.803Z,98547.31
2022-09-29T12:38:35.397Z,98557.66
2022-09-29T12:41:04.076Z,98549.16
2022-09-29T12:43:33.085Z,98554.34
2022-09-29T12:46:01.394Z,98547.13
2022-09-29T12:48:29.395Z,98553.34
2022-09-29T12:50:57.637Z,98552.19
2022-09-29T12:53:26.208Z,98558.13
2022-09-29T12:55:54.220Z,98546.13
2022-09-29T12:58:22.214Z,98548.38
2022-09-29T13:00:50.698Z,98548.53
2022-09-29T13:03:18.507Z,98555.97
2022-09-29T13:05:47.171Z,98555.75
2022-09-29T13:08:19.132Z,98554.19
2022-09-29T13:10:47.321Z,98553.22
2022-09-29T13:13:15.179Z,98547.53
2022-09-29T13:15:46.141Z,98550.53
2022-09-29T13:18:15.187Z,98556.00
2022-09-29T13:20:44.001Z,98552.25
2022-09-29T13:23:13.016Z,98554.25
2022-09-29T13:25:40.921Z,98546.50
2022-09-29T13:28:08.924Z,98553.25
2022-09-29T13:30:37.487Z,98552.78
2022-09-29T13:33:05.542Z,98551.03
2022-09-29T13:35:33.318Z,98548.19
2022-09-29T13:38:01.175Z,98555.69
2022-09-29T13:40:29.166Z,98549.53
2022-09-29T13:42:57.575Z,98547.44
2022-09-29T13:45:30.658Z,98543.69
2022-09-29T13:47:59.606Z,98544.91
2022-09-29T13:50:28.612Z,98554.28
2022-09-29T13:52:56.792Z,98554.88
2022-09-29T13:55:26.718Z,98549.91
2022-09-29T13:57:54.616Z,98555.69
2022-09-29T14:00:22.387Z,98548.91
2022-09-29T14:02:52.523Z,98548.53
2022-09-29T14:05:20.363Z,98552.63
2022-09-29T14:07:50.085Z,98550.13
2022-09-29T14:10:18.027Z,98556.31
2022-09-29T14:12:49.070Z,98563.84
2022-09-29T14:15:19.450Z,98566.72
2022-09-29T14:17:47.237Z,98573.53
2022-09-29T14:20:16.417Z,98576.06
2022-09-29T14:22:44.417Z,98574.41
2022-09-29T14:25:12.445Z,98578.13
2022-09-29T14:27:40.315Z,98579.50
2022-09-29T14:30:08.376Z,98586.06
2022-09-29T14:32:37.146Z,98583.28
2022-09-29T14:35:06.516Z,98598.94
2022-09-29T14:37:35.092Z,98596.41
2022-09-29T14:40:28.761Z,98602.31
2022-09-29T14:42:57.392Z,98606.56
2022-09-29T14:45:51.014Z,98607.09
2022-09-29T14:48:36.106Z,98613.03
2022-09-29T14:51:21.366Z,98611.72
2022-09-29T14:53:50.038Z,98611.41
2022-09-29T14:56:18.202Z,98616.28
2022-09-29T14:58:46.592Z,98621.97
2022-09-29T15:01:14.398Z,98622.28
2022-09-29T15:03:42.355Z,98621.78
2022-09-29T15:06:11.147Z,98623.91
2022-09-29T15:08:40.356Z,98624.25
2022-09-29T15:11:08.593Z,98624.16
2022-09-29T15:13:36.430Z,98633.34
2022-09-29T15:16:04.734Z,98627.06
2022-09-29T15:18:33.102Z,98630.94
2022-09-29T15:21:01.418Z,98628.81
2022-09-29T15:23:29.380Z,98621.22
2022-09-29T15:28:30.571Z,98626.72
2022-09-29T15:30:58.931Z,98622.31
2022-09-29T15:33:27.791Z,98622.25
2022-09-29T15:35:56.343Z,98623.47
2022-09-29T15:38:24.223Z,98620.31
2022-09-29T15:40:52.103Z,98620.06
2022-09-29T15:43:21.250Z,98623.59
2022-09-29T15:45:49.175Z,98625.84
2022-09-29T15:48:17.125Z,98632.34
2022-09-29T15:50:44.984Z,98630.44
2022-09-29T15:53:12.848Z,98632.28
2022-09-29T15:55:41.160Z,98644.66
2022-09-29T15:58:09.356Z,98652.81
2022-09-29T16:00:37.201Z,98657.97
2022-09-29T16:03:05.051Z,98656.72
2022-09-29T16:05:33.302Z,98659.78
2022-09-29T16:08:04.322Z,98659.16
2022-09-29T16:10:32.403Z,98664.69
2022-09-29T16:13:00.182Z,98665.50
2022-09-29T16:15:28.135Z,98667.94
2022-09-29T16:17:56.110Z,98673.72
2022-09-29T16:20:24.980Z,98676.22
2022-09-29T16:22:52.841Z,98679.97
2022-09-29T16:25:20.827Z,98679.75
2022-09-29T16:27:49.671Z,98693.38
2022-09-29T16:30:17.532Z,98691.13
2022-09-29T16:32:45.927Z,98696.03
2022-09-29T16:35:14.427Z,98692.94
2022-09-29T16:37:42.388Z,98698.78
2022-09-29T16:40:10.281Z,98703.53
2022-09-29T16:42:38.103Z,98708.44
2022-09-29T16:45:08.343Z,98702.63
2022-09-29T16:47:36.278Z,98709.34
2022-09-29T16:50:05.586Z,98712.56
2022-09-29T16:52:34.074Z,98721.13
2022-09-29T16:55:01.915Z,98713.78
2022-09-29T16:57:30.674Z,98726.84
2022-09-29T16:59:58.599Z,98727.53
2022-09-29T17:02:26.323Z,98725.47
2022-09-29T17:04:54.309Z,98728.81
2022-09-29T17:07:22.219Z,98728.44
2022-09-29T17:09:50.927Z,98741.28
2022-09-29T17:12:18.872Z,98741.59
2022-09-29T17:14:47.959Z,98739.22
2022-09-29T17:17:15.877Z,98743.19
2022-09-29T17:19:43.788Z,98745.31
2022-09-29T17:22:12.222Z,98745.75
2022-09-29T17:24:39.981Z,98746.88
2022-09-29T17:27:25.152Z,98752.19
2022-09-29T17:29:53.011Z,98750.44
2022-09-29T17:32:24.284Z,98752.06
2022-09-29T17:34:52.170Z,98757.16
2022-09-29T17:37:20.018Z,98757.78
2022-09-29T17:39:47.794Z,98768.91
2022-09-29T17:42:15.787Z,98773.44
2022-09-29T17:44:45.412Z,98775.56
2022-09-29T17:47:27.114Z,98775.19
2022-09-29T17:49:56.126Z,98780.13
2022-09-29T17:52:24.335Z,98785.25
2022-09-29T17:54:52.958Z,98788.41
2022-09-29T17:57:20.894Z,98786.34
2022-09-29T17:59:48.801Z,98793.28
2022-09-29T18:02:17.040Z,98788.53
2022-09-29T18:04:48.874Z,98790.84
2022-09-29T18:07:17.847Z,98795.78
2022-09-29T18:09:47.460Z,98794.56
2022-09-29T18:12:15.557Z,98799.81
2022-09-29T18:14:43.554Z,98798.59
2022-09-29T18:17:11.455Z,98813.19
2022-09-29T18:19:40.863Z,98811.44
2022-09-29T18:22:08.748Z,98816.50
2022-09-29T18:24:36.656Z,98810.28
2022-09-29T18:27:04.564Z,98820.81
2022-09-29T18:29:32.971Z,98831.19
2022-09-29T18:32:01.352Z,98829.97
2022-09-29T18:34:31.414Z,98832.41
2022-09-29T18:37:00.242Z,98844.44
2022-09-29T18:39:28.088Z,98840.41
2022-09-29T18:41:56.144Z,98843.50
2022-09-29T18:44:25.458Z,98844.59
2022-09-29T18:46:53.481Z,98850.22
2022-09-29T18:49:21.693Z,98848.81
2022-09-29T18:51:52.930Z,98857.09
2022-09-29T18:54:20.773Z,98858.09
2022-09-29T18:56:52.601Z,98855.56
2022-09-29T18:59:22.572Z,98858.50
2022-09-29T19:01:50.633Z,98859.78
2022-09-29T19:04:18.532Z,98863.84
2022-09-29T19:06:46.309Z,98866.22
2022-09-29T19:09:14.958Z,98865.97
2022-09-29T19:11:42.943Z,98868.19
2022-09-29T19:14:10.757Z,98865.16
2022-09-29T19:16:38.640Z,98874.38
2022-09-29T19:19:08.690Z,98874.38
2022-09-29T19:21:36.831Z,98884.19
2022-09-29T19:24:04.829Z,98880.81
2022-09-29T19:26:32.750Z,98891.59
2022-09-29T19:29:00.486Z,98899.00
2022-09-29T19:31:28.416Z,98893.25
2022-09-29T19:33:57.735Z,98900.81
2022-09-29T19:36:25.720Z,98899.56
2022-09-29T19:38:53.610Z,98903.59
2022-09-29T19:41:21.425Z,98906.81
2022-09-29T19:43:49.446Z,98908.91
2022-09-29T19:46:18.489Z,98912.97
2022-09-29T19:48:46.309Z,98916.03
2022-09-29T19:51:31.438Z,98919.91
2022-09-29T19:54:11.997Z,98920.22
2022-09-29T19:56:41.218Z,98926.75
2022-09-29T19:59:10.357Z,98919.91
2022-09-29T20:01:38.732Z,98930.78
2022-09-29T20:04:06.755Z,98928.44
2022-09-29T20:06:36.259Z,98932.19
2022-09-29T20:09:05.280Z,98940.41
2022-09-29T20:11:35.248Z,98941.66
2022-09-29T20:14:03.641Z,98944.72
2022-09-29T20:16:33.689Z,98953.22
2022-09-29T20:19:01.575Z,98954.59
2022-09-29T20:21:30.001Z,98957.50
2022-09-29T20:23:58.098Z,98970.47
2022-09-29T20:26:26.320Z,98968.34
2022-09-29T20:28:54.303Z,98966.09
2022-09-29T20:31:22.103Z,98973.47
2022-09-29T20:33:51.351Z,98976.38
2022-09-29T20:36:19.217Z,98975.81
2022-09-29T20:38:47.628Z,98967.97
2022-09-29T20:41:15.682Z,98969.94
2022-09-29T20:43:44.439Z,98975.34
2022-09-29T20:46:13.534Z,98972.94
2022-09-29T20:48:41.649Z,98974.88
2022-09-29T20:51:15.383Z,98982.13
2022-09-29T20:53:43.332Z,98994.66
2022-09-29T20:56:11.567Z,98995.78
2022-09-29T20:58:40.052Z,98996.84
2022-09-29T21:01:07.940Z,99004.38
2022-09-29T21:03:35.703Z,99001.25
2022-09-29T21:06:03.487Z,99000.41
2022-09-29T21:08:31.564Z,99002.09
2022-09-29T21:11:00.131Z,98996.78
2022-09-29T21:13:27.952Z,99010.19
2022-09-29T21:15:55.862Z,99009.50
2022-09-29T21:18:23.625Z,99009.72
2022-09-29T21:20:51.392Z,99003.03
2022-09-29T21:23:20.137Z,99016.50
2022-09-29T21:25:47.962Z,99012.56
2022-09-29T21:28:15.731Z,99018.13
2022-09-29T21:30:43.963Z,99018.47
2022-09-29T21:33:11.788Z,99020.56
2022-09-29T21:35:40.295Z,99028.06
2022-09-29T21:38:08.139Z,99030.81
2022-09-29T21:40:36.939Z,99033.59
2022-09-29T21:43:04.546Z,99034.69
2022-09-29T21:45:32.227Z,99042.75
2022-09-29T21:48:12.336Z,99041.91
2022-09-29T21:50:40.273Z,99046.50
2022-09-29T21:53:08.161Z,99052.66
2022-09-29T21:55:35.817Z,99049.16
2022-09-29T21:58:03.483Z,99055.53
2022-09-29T22:00:31.787Z,99055.69
2022-09-29T22:02:59.487Z,99052.28
2022-09-29T22:05:27.688Z,99056.03
2022-09-29T22:07:55.336Z,99061.56
2022-09-29T22:10:23.296Z,99054.72
2022-09-29T22:12:51.494Z,99056.78
2022-09-29T22:15:19.443Z,99053.53
2022-09-29T22:17:47.071Z,99047.53
2022-09-29T22:20:14.856Z,99045.13
2022-09-29T22:22:42.518Z,99048.72
2022-09-29T22:25:10.366Z,99049.84
2022-09-29T22:27:38.054Z,99049.25
2022-09-29T22:30:05.698Z,99046.09
2022-09-29T22:32:33.327Z,99060.41
2022-09-29T22:35:01.052Z,99054.69
2022-09-29T22:37:31.125Z,99055.88
2022-09-29T22:39:58.946Z,99062.25
2022-09-29T22:42:26.590Z,99059.00
2022-09-29T22:44:54.240Z,99059.25
2022-09-29T22:47:21.839Z,99052.13
2022-09-29T22:49:49.953Z,99058.28
2022-09-29T22:52:17.743Z,99061.03
2022-09-29T22:54:45.756Z,99060.31
2022-09-29T22:57:13.594Z,99057.94
2022-09-29T22:59:41.202Z,99064.31
2022-09-29T23:02:09.380Z,99065.38
2022-09-29T23:04:37.075Z,99063.91
2022-09-29T23:07:04.726Z,99069.47
2022-09-29T23:09:32.383Z,99063.31
2022-09-29T23:12:00.146Z,99068.75
2022-09-29T23:14:28.652Z,99059.34
2022-09-29T23:16:56.605Z,99069.22
2022-09-29T23:19:24.247Z,99069.59
2022-09-29T23:21:52.214Z,99067.41
2022-09-29T23:24:20.562Z,99060.81
2022-09-29T23:26:49.642Z,99065.47
2022-09-29T23:29:17.274Z,99070.16
2022-09-29T23:31:49.398Z,99068.47
2022-09-29T23:34:17.374Z,99076.53
2022-09-29T23:36:44.932Z,99080.13
2022-09-29T23:39:14.514Z,99080.13
2022-09-29T23:41:42.482Z,99087.34
2022-09-29T23:44:10.099Z,99081.31
2022-09-29T23:46:37.691Z,99081.44
2022-09-29T23:49:07.662Z,99088.53
2022-09-29T23:51:35.730Z,99077.22
2022-09-29T23:54:03.519Z,99079.97
2022-09-29T23:56:31.293Z,99086.22
2022-09-29T23:58:58.805Z,99081.91
